ACA35 CYAM-KAVL
Flight info
| Callsign | ACA35 |
|---|---|
| Flight time | 2h 6m |
| Altitude | 38000 |
| Route | CATGA DCT TVC J548 ADALE/N0488F370 J34 CRL/N0487F380 J43 FLM/N0484F390 J43 VXV DCT AUBRY DCT PUPDG DCT RIGEL |
| Aircraft | B77W/H-SDE1E2E3FGHIJ2J3J4J5M1RWXY/LB1D1 |
Departure
| Time | 2026-05-09 05:23 |
|---|---|
| Airport | Sault Ste Marie Airport (CYAM) |
Arrival
| Time | 2026-05-09 07:29 |
|---|---|
| Airport | Asheville Regional Airport (KAVL) |
| Time | Latitude | Longitude | Altitude | Speed | Heading |
|---|---|---|---|---|---|
| 2026-05-09 04:59 | 46.48465 | -84.50269 | 615 ft | 0 kts | 77° |
| 2026-05-09 05:16 | 46.48466 | -84.50264 | 630 ft | 6 kts | 71° |
| 2026-05-09 05:16 | 46.48549 | -84.50201 | 625 ft | 11 kts | 354° |
| 2026-05-09 05:16 | 46.48574 | -84.50211 | 624 ft | 7 kts | 343° |
| 2026-05-09 05:17 | 46.48659 | -84.50219 | 626 ft | 17 kts | 16° |
| 2026-05-09 05:17 | 46.48767 | -84.50138 | 629 ft | 12 kts | 32° |
| 2026-05-09 05:17 | 46.48838 | -84.50071 | 626 ft | 12 kts | 33° |
| 2026-05-09 05:17 | 46.48910 | -84.50004 | 636 ft | 12 kts | 33° |
| 2026-05-09 05:18 | 46.48983 | -84.49939 | 634 ft | 12 kts | 25° |
| 2026-05-09 05:18 | 46.49061 | -84.49919 | 632 ft | 10 kts | 356° |
| 2026-05-09 05:18 | 46.49084 | -84.49925 | 631 ft | 0 kts | 345° |
| 2026-05-09 05:21 | 46.49111 | -84.49943 | 635 ft | 13 kts | 330° |
| 2026-05-09 05:21 | 46.49140 | -84.50048 | 636 ft | 12 kts | 250° |
| 2026-05-09 05:21 | 46.49113 | -84.50094 | 637 ft | 0 kts | 221° |
| 2026-05-09 05:22 | 46.48806 | -84.50396 | 632 ft | 107 kts | 213° |
| 2026-05-09 05:23 | 46.47911 | -84.51278 | 636 ft | 197 kts | 219° |
| 2026-05-09 05:23 | 46.46750 | -84.52380 | 1840 ft | 195 kts | 203° |
| 2026-05-09 05:23 | 46.45343 | -84.52474 | 3221 ft | 225 kts | 169° |
| 2026-05-09 05:23 | 46.43879 | -84.51304 | 3667 ft | 258 kts | 147° |
| 2026-05-09 05:24 | 46.42218 | -84.50315 | 4413 ft | 261 kts | 181° |
| 2026-05-09 05:24 | 46.40435 | -84.50657 | 5459 ft | 258 kts | 199° |
| 2026-05-09 05:24 | 46.38727 | -84.51453 | 6603 ft | 259 kts | 204° |
| 2026-05-09 05:24 | 46.37031 | -84.52381 | 7637 ft | 263 kts | 206° |
| 2026-05-09 05:25 | 46.35324 | -84.53372 | 8700 ft | 265 kts | 207° |
| 2026-05-09 05:25 | 46.33602 | -84.54400 | 9693 ft | 273 kts | 208° |
| 2026-05-09 05:25 | 46.30033 | -84.56573 | 10739 ft | 278 kts | 208° |
| 2026-05-09 05:26 | 46.28251 | -84.57668 | 11242 ft | 280 kts | 209° |
| 2026-05-09 05:26 | 46.26374 | -84.58834 | 11535 ft | 309 kts | 209° |
| 2026-05-09 05:26 | 46.24304 | -84.60131 | 11793 ft | 340 kts | 208° |
| 2026-05-09 05:26 | 46.22044 | -84.61541 | 12254 ft | 363 kts | 208° |
| 2026-05-09 05:27 | 46.19694 | -84.62995 | 13168 ft | 372 kts | 208° |
| 2026-05-09 05:27 | 46.17291 | -84.64476 | 14142 ft | 378 kts | 208° |
| 2026-05-09 05:27 | 46.14854 | -84.65976 | 15114 ft | 383 kts | 208° |
| 2026-05-09 05:27 | 46.12421 | -84.67474 | 16065 ft | 388 kts | 209° |
| 2026-05-09 05:28 | 46.09888 | -84.69035 | 17010 ft | 394 kts | 209° |
| 2026-05-09 05:28 | 46.07378 | -84.70583 | 17913 ft | 400 kts | 209° |
| 2026-05-09 05:28 | 46.04803 | -84.72171 | 18729 ft | 406 kts | 209° |
| 2026-05-09 05:28 | 46.02191 | -84.73780 | 19529 ft | 410 kts | 209° |
| 2026-05-09 05:29 | 45.99555 | -84.75402 | 20350 ft | 415 kts | 209° |
| 2026-05-09 05:29 | 45.96889 | -84.77040 | 21151 ft | 419 kts | 209° |
| 2026-05-09 05:29 | 45.94192 | -84.78697 | 21917 ft | 424 kts | 209° |
| 2026-05-09 05:29 | 45.91462 | -84.80372 | 22685 ft | 429 kts | 209° |
| 2026-05-09 05:30 | 45.88702 | -84.82063 | 23437 ft | 433 kts | 209° |
| 2026-05-09 05:30 | 45.85914 | -84.83770 | 24074 ft | 437 kts | 209° |
| 2026-05-09 05:30 | 45.83111 | -84.85483 | 24728 ft | 439 kts | 209° |
| 2026-05-09 05:30 | 45.80290 | -84.87204 | 25392 ft | 442 kts | 209° |
| 2026-05-09 05:31 | 45.77451 | -84.88935 | 26025 ft | 445 kts | 209° |
| 2026-05-09 05:31 | 45.74595 | -84.90677 | 26602 ft | 448 kts | 209° |
| 2026-05-09 05:31 | 45.71714 | -84.92431 | 27179 ft | 452 kts | 209° |
| 2026-05-09 05:31 | 45.68809 | -84.94198 | 27748 ft | 455 kts | 209° |
| 2026-05-09 05:32 | 45.65886 | -84.95974 | 28260 ft | 458 kts | 209° |
| 2026-05-09 05:32 | 45.62953 | -84.97753 | 28826 ft | 459 kts | 209° |
| 2026-05-09 05:32 | 45.60006 | -84.99538 | 29324 ft | 462 kts | 209° |
| 2026-05-09 05:32 | 45.57110 | -85.01291 | 29739 ft | 465 kts | 209° |
| 2026-05-09 05:33 | 45.54129 | -85.03094 | 30119 ft | 467 kts | 209° |
| 2026-05-09 05:33 | 45.51135 | -85.04902 | 30518 ft | 468 kts | 209° |
| 2026-05-09 05:33 | 45.48142 | -85.06707 | 30980 ft | 467 kts | 209° |
| 2026-05-09 05:33 | 45.45153 | -85.08505 | 31468 ft | 465 kts | 209° |
| 2026-05-09 05:34 | 45.42177 | -85.10293 | 31967 ft | 463 kts | 209° |
| 2026-05-09 05:34 | 45.39209 | -85.12077 | 32376 ft | 464 kts | 209° |
| 2026-05-09 05:34 | 45.36230 | -85.13867 | 32772 ft | 464 kts | 209° |
| 2026-05-09 05:34 | 45.33256 | -85.15652 | 33184 ft | 464 kts | 209° |
| 2026-05-09 05:35 | 45.30282 | -85.17434 | 33651 ft | 464 kts | 209° |
| 2026-05-09 05:35 | 45.27311 | -85.19212 | 34029 ft | 463 kts | 210° |
| 2026-05-09 05:35 | 45.24352 | -85.20980 | 34412 ft | 462 kts | 210° |
| 2026-05-09 05:35 | 45.21383 | -85.22754 | 34671 ft | 463 kts | 210° |
| 2026-05-09 05:36 | 45.18407 | -85.24531 | 34908 ft | 465 kts | 209° |
| 2026-05-09 05:36 | 45.15460 | -85.26289 | 35166 ft | 466 kts | 209° |
| 2026-05-09 05:36 | 45.12470 | -85.28069 | 35452 ft | 467 kts | 209° |
| 2026-05-09 05:36 | 45.09472 | -85.29851 | 35720 ft | 468 kts | 209° |
| 2026-05-09 05:37 | 45.06476 | -85.31629 | 36052 ft | 466 kts | 209° |
| 2026-05-09 05:37 | 45.03484 | -85.33402 | 36334 ft | 467 kts | 209° |
| 2026-05-09 05:37 | 45.00484 | -85.35180 | 36562 ft | 468 kts | 209° |
| 2026-05-09 05:37 | 44.97477 | -85.36960 | 36791 ft | 470 kts | 209° |
| 2026-05-09 05:38 | 44.91398 | -85.40555 | 36937 ft | 476 kts | 209° |
| 2026-05-09 05:38 | 44.85322 | -85.44131 | 36934 ft | 470 kts | 209° |
| 2026-05-09 05:39 | 44.79319 | -85.47659 | 36942 ft | 466 kts | 209° |
| 2026-05-09 05:39 | 44.73337 | -85.51175 | 36945 ft | 466 kts | 209° |
| 2026-05-09 05:40 | 44.68298 | -85.54066 | 36955 ft | 470 kts | 206° |
| 2026-05-09 05:40 | 44.65206 | -85.55432 | 37078 ft | 475 kts | 201° |
| 2026-05-09 05:40 | 44.61912 | -85.56411 | 37211 ft | 480 kts | 197° |
| 2026-05-09 05:41 | 44.58621 | -85.57243 | 37354 ft | 482 kts | 197° |
| 2026-05-09 05:41 | 44.55311 | -85.58066 | 37487 ft | 484 kts | 197° |
| 2026-05-09 05:41 | 44.51994 | -85.58896 | 37599 ft | 485 kts | 197° |
| 2026-05-09 05:41 | 44.48673 | -85.59740 | 37725 ft | 485 kts | 197° |
| 2026-05-09 05:42 | 44.42090 | -85.61437 | 37842 ft | 483 kts | 197° |
| 2026-05-09 05:42 | 44.35488 | -85.63152 | 37851 ft | 482 kts | 197° |
| 2026-05-09 05:43 | 44.28903 | -85.64860 | 37861 ft | 481 kts | 197° |
| 2026-05-09 05:43 | 44.22322 | -85.66563 | 37863 ft | 481 kts | 197° |
| 2026-05-09 05:44 | 44.15738 | -85.68261 | 37863 ft | 481 kts | 197° |
| 2026-05-09 05:44 | 44.09164 | -85.69952 | 37860 ft | 480 kts | 198° |
| 2026-05-09 05:45 | 44.02586 | -85.71642 | 37863 ft | 481 kts | 198° |
| 2026-05-09 05:45 | 43.96014 | -85.73314 | 37865 ft | 481 kts | 197° |
| 2026-05-09 05:46 | 43.89431 | -85.74969 | 37861 ft | 480 kts | 198° |
| 2026-05-09 05:46 | 43.82855 | -85.76622 | 37868 ft | 480 kts | 198° |
| 2026-05-09 05:47 | 43.76283 | -85.78274 | 37861 ft | 480 kts | 198° |
| 2026-05-09 05:47 | 43.69717 | -85.79920 | 37859 ft | 479 kts | 198° |
| 2026-05-09 05:48 | 43.63167 | -85.81578 | 37870 ft | 478 kts | 198° |
| 2026-05-09 05:48 | 43.56627 | -85.83239 | 37884 ft | 478 kts | 198° |
| 2026-05-09 05:49 | 43.50098 | -85.84890 | 37878 ft | 477 kts | 198° |
| 2026-05-09 05:49 | 43.43579 | -85.86534 | 37877 ft | 476 kts | 198° |
| 2026-05-09 05:50 | 43.37060 | -85.88174 | 37877 ft | 476 kts | 198° |
| 2026-05-09 05:50 | 43.30558 | -85.89807 | 37876 ft | 475 kts | 198° |
| 2026-05-09 05:51 | 43.24109 | -85.91423 | 37890 ft | 474 kts | 198° |
| 2026-05-09 05:51 | 43.17614 | -85.93048 | 37908 ft | 474 kts | 198° |
| 2026-05-09 05:52 | 43.11461 | -85.94582 | 37903 ft | 473 kts | 198° |
| 2026-05-09 05:52 | 43.05109 | -85.96169 | 37902 ft | 472 kts | 198° |
| 2026-05-09 05:53 | 42.98652 | -85.97781 | 37894 ft | 471 kts | 198° |
| 2026-05-09 05:53 | 42.92033 | -85.97817 | 37889 ft | 498 kts | 172° |
| 2026-05-09 05:54 | 42.88791 | -85.95924 | 37891 ft | 517 kts | 154° |
| 2026-05-09 05:54 | 42.85973 | -85.92782 | 37902 ft | 534 kts | 136° |
| 2026-05-09 05:54 | 42.83863 | -85.88567 | 37905 ft | 546 kts | 118° |
| 2026-05-09 05:54 | 42.82699 | -85.83623 | 37905 ft | 551 kts | 102° |
| 2026-05-09 05:55 | 42.81607 | -85.73247 | 37895 ft | 555 kts | 98° |
| 2026-05-09 05:55 | 42.80443 | -85.62830 | 37898 ft | 558 kts | 101° |
| 2026-05-09 05:56 | 42.78900 | -85.52454 | 37888 ft | 559 kts | 107° |
| 2026-05-09 05:56 | 42.76316 | -85.42510 | 37858 ft | 555 kts | 118° |
| 2026-05-09 05:57 | 42.72930 | -85.33093 | 37896 ft | 554 kts | 120° |
| 2026-05-09 05:57 | 42.69550 | -85.23681 | 37903 ft | 554 kts | 119° |
| 2026-05-09 05:58 | 42.66229 | -85.14240 | 37897 ft | 553 kts | 119° |
| 2026-05-09 05:58 | 42.62900 | -85.04841 | 37893 ft | 552 kts | 119° |
| 2026-05-09 05:59 | 42.59561 | -84.95463 | 37890 ft | 551 kts | 119° |
| 2026-05-09 05:59 | 42.56221 | -84.86106 | 37891 ft | 551 kts | 119° |
| 2026-05-09 06:00 | 42.52878 | -84.76767 | 37888 ft | 551 kts | 119° |
| 2026-05-09 06:00 | 42.49527 | -84.67436 | 37895 ft | 550 kts | 119° |
| 2026-05-09 06:01 | 42.46170 | -84.58115 | 37896 ft | 550 kts | 120° |
| 2026-05-09 06:01 | 42.42822 | -84.48853 | 37899 ft | 551 kts | 120° |
| 2026-05-09 06:02 | 42.39435 | -84.39529 | 37910 ft | 552 kts | 120° |
| 2026-05-09 06:02 | 42.36033 | -84.30192 | 37918 ft | 553 kts | 120° |
| 2026-05-09 06:03 | 42.32626 | -84.20863 | 37917 ft | 554 kts | 120° |
| 2026-05-09 06:03 | 42.29208 | -84.11536 | 37909 ft | 554 kts | 120° |
| 2026-05-09 06:04 | 42.25783 | -84.02220 | 37904 ft | 554 kts | 120° |
| 2026-05-09 06:04 | 42.22387 | -83.93015 | 37898 ft | 554 kts | 120° |
| 2026-05-09 06:05 | 42.18946 | -83.83716 | 37899 ft | 554 kts | 120° |
| 2026-05-09 06:05 | 42.15494 | -83.74417 | 37919 ft | 555 kts | 120° |
| 2026-05-09 06:06 | 42.12031 | -83.65116 | 37910 ft | 556 kts | 121° |
| 2026-05-09 06:06 | 42.08159 | -83.56323 | 37897 ft | 540 kts | 140° |
| 2026-05-09 06:07 | 42.05305 | -83.53089 | 37900 ft | 522 kts | 156° |
| 2026-05-09 06:07 | 42.02087 | -83.51040 | 37920 ft | 504 kts | 171° |
| 2026-05-09 06:07 | 41.98740 | -83.49928 | 37916 ft | 491 kts | 180° |
| 2026-05-09 06:07 | 41.95376 | -83.49457 | 37921 ft | 481 kts | 188° |
| 2026-05-09 06:08 | 41.92145 | -83.49798 | 37914 ft | 463 kts | 201° |
| 2026-05-09 06:08 | 41.89046 | -83.50828 | 37919 ft | 458 kts | 205° |
| 2026-05-09 06:08 | 41.82910 | -83.53196 | 37916 ft | 460 kts | 205° |
| 2026-05-09 06:09 | 41.76684 | -83.55360 | 37902 ft | 462 kts | 204° |
| 2026-05-09 06:09 | 41.70443 | -83.57462 | 37907 ft | 462 kts | 204° |
| 2026-05-09 06:10 | 41.64216 | -83.59575 | 37905 ft | 461 kts | 204° |
| 2026-05-09 06:10 | 41.58001 | -83.61676 | 37907 ft | 459 kts | 204° |
| 2026-05-09 06:11 | 41.51814 | -83.63748 | 37930 ft | 457 kts | 204° |
| 2026-05-09 06:11 | 41.45653 | -83.65811 | 37934 ft | 455 kts | 204° |
| 2026-05-09 06:12 | 41.39516 | -83.67866 | 37942 ft | 454 kts | 204° |
| 2026-05-09 06:12 | 41.33407 | -83.69914 | 37936 ft | 452 kts | 205° |
| 2026-05-09 06:13 | 41.27352 | -83.71943 | 37948 ft | 452 kts | 205° |
| 2026-05-09 06:13 | 41.21260 | -83.73979 | 37958 ft | 452 kts | 205° |
| 2026-05-09 06:14 | 41.15165 | -83.76007 | 37957 ft | 452 kts | 205° |
| 2026-05-09 06:14 | 41.09062 | -83.78029 | 37959 ft | 452 kts | 205° |
| 2026-05-09 06:15 | 41.02951 | -83.80051 | 37965 ft | 452 kts | 205° |
| 2026-05-09 06:15 | 40.96846 | -83.82068 | 37962 ft | 453 kts | 205° |
| 2026-05-09 06:16 | 40.90738 | -83.84082 | 37958 ft | 452 kts | 205° |
| 2026-05-09 06:16 | 40.84627 | -83.86094 | 37959 ft | 453 kts | 205° |
| 2026-05-09 06:17 | 40.78506 | -83.88106 | 37958 ft | 454 kts | 205° |
| 2026-05-09 06:17 | 40.72379 | -83.90115 | 37930 ft | 454 kts | 205° |
| 2026-05-09 06:18 | 40.66252 | -83.92119 | 37939 ft | 453 kts | 205° |
| 2026-05-09 06:18 | 40.60130 | -83.94120 | 37942 ft | 453 kts | 205° |
| 2026-05-09 06:19 | 40.54016 | -83.96114 | 37951 ft | 453 kts | 205° |
| 2026-05-09 06:19 | 40.47898 | -83.98105 | 37948 ft | 453 kts | 205° |
| 2026-05-09 06:20 | 40.41826 | -84.00078 | 37955 ft | 452 kts | 205° |
| 2026-05-09 06:20 | 40.35723 | -84.02058 | 37959 ft | 452 kts | 205° |
| 2026-05-09 06:21 | 40.29624 | -84.04019 | 37924 ft | 452 kts | 204° |
| 2026-05-09 06:21 | 40.23324 | -84.05303 | 37958 ft | 461 kts | 199° |
| 2026-05-09 06:22 | 40.16954 | -84.06320 | 37957 ft | 461 kts | 199° |
| 2026-05-09 06:22 | 40.10586 | -84.07346 | 37956 ft | 461 kts | 199° |
| 2026-05-09 06:23 | 40.04225 | -84.08394 | 37957 ft | 460 kts | 199° |
| 2026-05-09 06:23 | 39.97877 | -84.09449 | 37966 ft | 460 kts | 199° |
| 2026-05-09 06:24 | 39.91526 | -84.10504 | 37963 ft | 460 kts | 199° |
| 2026-05-09 06:24 | 39.85174 | -84.11555 | 37930 ft | 459 kts | 200° |
| 2026-05-09 06:25 | 39.78844 | -84.12600 | 37946 ft | 458 kts | 200° |
| 2026-05-09 06:25 | 39.72562 | -84.13636 | 37943 ft | 458 kts | 200° |
| 2026-05-09 06:26 | 39.66241 | -84.14676 | 37962 ft | 458 kts | 200° |
| 2026-05-09 06:26 | 39.59928 | -84.15713 | 37959 ft | 457 kts | 200° |
| 2026-05-09 06:27 | 39.53617 | -84.16749 | 37966 ft | 457 kts | 200° |
| 2026-05-09 06:27 | 39.47301 | -84.17783 | 37960 ft | 458 kts | 200° |
| 2026-05-09 06:28 | 39.42009 | -84.18649 | 37920 ft | 458 kts | 199° |
| 2026-05-09 06:28 | 39.35697 | -84.19677 | 37971 ft | 457 kts | 199° |
| 2026-05-09 06:29 | 39.29394 | -84.20702 | 37987 ft | 456 kts | 199° |
| 2026-05-09 06:29 | 39.23088 | -84.21728 | 37980 ft | 457 kts | 199° |
| 2026-05-09 06:30 | 39.16793 | -84.22748 | 37980 ft | 455 kts | 199° |
| 2026-05-09 06:30 | 39.10517 | -84.23763 | 37996 ft | 454 kts | 199° |
| 2026-05-09 06:31 | 39.04243 | -84.24779 | 37982 ft | 454 kts | 199° |
| 2026-05-09 06:31 | 38.97982 | -84.25790 | 37931 ft | 454 kts | 200° |
| 2026-05-09 06:32 | 38.91782 | -84.26786 | 37991 ft | 451 kts | 200° |
| 2026-05-09 06:33 | 38.82453 | -84.28287 | 37997 ft | 450 kts | 200° |
| 2026-05-09 06:33 | 38.76248 | -84.29285 | 38001 ft | 449 kts | 200° |
| 2026-05-09 06:34 | 38.66951 | -84.30692 | 38000 ft | 453 kts | 197° |
| 2026-05-09 06:34 | 38.60534 | -84.30515 | 38003 ft | 472 kts | 187° |
| 2026-05-09 06:35 | 38.54004 | -84.29448 | 38013 ft | 474 kts | 186° |
| 2026-05-09 06:35 | 38.47471 | -84.28362 | 38001 ft | 473 kts | 187° |
| 2026-05-09 06:36 | 38.40942 | -84.27319 | 38019 ft | 474 kts | 188° |
| 2026-05-09 06:36 | 38.34394 | -84.26292 | 38000 ft | 473 kts | 188° |
| 2026-05-09 06:37 | 38.31151 | -84.25777 | 37759 ft | 466 kts | 188° |
| 2026-05-09 06:37 | 38.27953 | -84.25271 | 37210 ft | 461 kts | 188° |
| 2026-05-09 06:37 | 38.24762 | -84.24779 | 36166 ft | 468 kts | 187° |
| 2026-05-09 06:37 | 38.21497 | -84.24285 | 35310 ft | 476 kts | 186° |
| 2026-05-09 06:38 | 38.18201 | -84.23772 | 34703 ft | 477 kts | 186° |
| 2026-05-09 06:38 | 38.14921 | -84.23254 | 34306 ft | 473 kts | 186° |
| 2026-05-09 06:38 | 38.11677 | -84.22740 | 34001 ft | 467 kts | 186° |
| 2026-05-09 06:38 | 38.08465 | -84.22233 | 33691 ft | 463 kts | 186° |
| 2026-05-09 06:39 | 38.05290 | -84.21736 | 33506 ft | 456 kts | 186° |
| 2026-05-09 06:39 | 38.02176 | -84.21246 | 33311 ft | 445 kts | 186° |
| 2026-05-09 06:39 | 37.99131 | -84.20769 | 32888 ft | 437 kts | 186° |
| 2026-05-09 06:39 | 37.96178 | -84.20302 | 32462 ft | 416 kts | 186° |
| 2026-05-09 06:40 | 37.93385 | -84.19854 | 32029 ft | 394 kts | 187° |
| 2026-05-09 06:40 | 37.90727 | -84.19436 | 31617 ft | 378 kts | 187° |
| 2026-05-09 06:40 | 37.88114 | -84.19049 | 31255 ft | 382 kts | 187° |
| 2026-05-09 06:40 | 37.85435 | -84.18669 | 30936 ft | 393 kts | 186° |
| 2026-05-09 06:41 | 37.82715 | -84.18275 | 30608 ft | 403 kts | 186° |
| 2026-05-09 06:41 | 37.79927 | -84.17852 | 30223 ft | 404 kts | 185° |
| 2026-05-09 06:41 | 37.77142 | -84.17416 | 29814 ft | 403 kts | 184° |
| 2026-05-09 06:41 | 37.74364 | -84.16982 | 29397 ft | 402 kts | 184° |
| 2026-05-09 06:42 | 37.71596 | -84.16551 | 28996 ft | 400 kts | 184° |
| 2026-05-09 06:42 | 37.68831 | -84.16125 | 28584 ft | 400 kts | 184° |
| 2026-05-09 06:42 | 37.66072 | -84.15702 | 28195 ft | 400 kts | 184° |
| 2026-05-09 06:42 | 37.63309 | -84.15281 | 27809 ft | 400 kts | 184° |
| 2026-05-09 06:43 | 37.60540 | -84.14862 | 27435 ft | 401 kts | 184° |
| 2026-05-09 06:43 | 37.57830 | -84.14442 | 27019 ft | 383 kts | 184° |
| 2026-05-09 06:43 | 37.55260 | -84.14032 | 26562 ft | 362 kts | 184° |
| 2026-05-09 06:43 | 37.52829 | -84.13648 | 26164 ft | 344 kts | 185° |
| 2026-05-09 06:44 | 37.50470 | -84.13289 | 25791 ft | 343 kts | 185° |
| 2026-05-09 06:44 | 37.48054 | -84.12947 | 25467 ft | 355 kts | 185° |
| 2026-05-09 06:44 | 37.45567 | -84.12592 | 25136 ft | 362 kts | 184° |
| 2026-05-09 06:44 | 37.43064 | -84.12222 | 24796 ft | 362 kts | 184° |
| 2026-05-09 06:45 | 37.40569 | -84.11843 | 24445 ft | 361 kts | 184° |
| 2026-05-09 06:45 | 37.38078 | -84.11466 | 24092 ft | 360 kts | 184° |
| 2026-05-09 06:45 | 37.35597 | -84.11091 | 23764 ft | 359 kts | 184° |
| 2026-05-09 06:45 | 37.33118 | -84.10715 | 23382 ft | 359 kts | 184° |
| 2026-05-09 06:46 | 37.30636 | -84.10340 | 22950 ft | 360 kts | 184° |
| 2026-05-09 06:46 | 37.28143 | -84.09966 | 22560 ft | 362 kts | 183° |
| 2026-05-09 06:46 | 37.25636 | -84.09591 | 22175 ft | 364 kts | 183° |
| 2026-05-09 06:46 | 37.23120 | -84.09213 | 21789 ft | 365 kts | 183° |
| 2026-05-09 06:47 | 37.20590 | -84.08833 | 21412 ft | 367 kts | 182° |
| 2026-05-09 06:47 | 37.18051 | -84.08452 | 21042 ft | 368 kts | 182° |
| 2026-05-09 06:47 | 37.15500 | -84.08068 | 20678 ft | 369 kts | 182° |
| 2026-05-09 06:47 | 37.12944 | -84.07684 | 20306 ft | 370 kts | 182° |
| 2026-05-09 06:48 | 37.10386 | -84.07300 | 19942 ft | 371 kts | 181° |
| 2026-05-09 06:48 | 37.07820 | -84.06915 | 19573 ft | 371 kts | 181° |
| 2026-05-09 06:48 | 37.05254 | -84.06530 | 19227 ft | 372 kts | 181° |
| 2026-05-09 06:48 | 37.02686 | -84.06145 | 18869 ft | 372 kts | 181° |
| 2026-05-09 06:49 | 37.00144 | -84.05765 | 18547 ft | 373 kts | 181° |
| 2026-05-09 06:49 | 36.97576 | -84.05381 | 18178 ft | 368 kts | 180° |
| 2026-05-09 06:49 | 36.95102 | -84.05002 | 17737 ft | 349 kts | 180° |
| 2026-05-09 06:49 | 36.92744 | -84.04639 | 17320 ft | 335 kts | 181° |
| 2026-05-09 06:50 | 36.90443 | -84.04291 | 16936 ft | 332 kts | 181° |
| 2026-05-09 06:50 | 36.88161 | -84.03952 | 16548 ft | 329 kts | 181° |
| 2026-05-09 06:50 | 36.85915 | -84.03616 | 16160 ft | 318 kts | 181° |
| 2026-05-09 06:50 | 36.83776 | -84.03292 | 15730 ft | 302 kts | 181° |
| 2026-05-09 06:51 | 36.81744 | -84.02981 | 15346 ft | 287 kts | 181° |
| 2026-05-09 06:51 | 36.79806 | -84.02688 | 14939 ft | 274 kts | 181° |
| 2026-05-09 06:51 | 36.77955 | -84.02409 | 14536 ft | 262 kts | 182° |
| 2026-05-09 06:51 | 36.76179 | -84.02144 | 14144 ft | 252 kts | 182° |
| 2026-05-09 06:52 | 36.74457 | -84.01890 | 13784 ft | 248 kts | 182° |
| 2026-05-09 06:52 | 36.72740 | -84.01639 | 13422 ft | 250 kts | 181° |
| 2026-05-09 06:52 | 36.71002 | -84.01386 | 13052 ft | 253 kts | 181° |
| 2026-05-09 06:52 | 36.69259 | -84.01128 | 12678 ft | 252 kts | 180° |
| 2026-05-09 06:53 | 36.67527 | -84.00871 | 12275 ft | 250 kts | 180° |
| 2026-05-09 06:53 | 36.65806 | -84.00619 | 11941 ft | 248 kts | 180° |
| 2026-05-09 06:53 | 36.64092 | -84.00369 | 11538 ft | 248 kts | 179° |
| 2026-05-09 06:53 | 36.62384 | -84.00114 | 11179 ft | 246 kts | 179° |
| 2026-05-09 06:54 | 36.60692 | -83.99859 | 10797 ft | 244 kts | 179° |
| 2026-05-09 06:54 | 36.59020 | -83.99610 | 10419 ft | 240 kts | 178° |
| 2026-05-09 06:54 | 36.57371 | -83.99363 | 10069 ft | 238 kts | 178° |
| 2026-05-09 06:54 | 36.55736 | -83.99120 | 9672 ft | 235 kts | 178° |
| 2026-05-09 06:55 | 36.54137 | -83.98882 | 9464 ft | 228 kts | 178° |
| 2026-05-09 06:55 | 36.52547 | -83.98646 | 9445 ft | 233 kts | 178° |
| 2026-05-09 06:55 | 36.50917 | -83.98403 | 9413 ft | 238 kts | 178° |
| 2026-05-09 06:55 | 36.49272 | -83.98163 | 9371 ft | 238 kts | 178° |
| 2026-05-09 06:56 | 36.47632 | -83.97921 | 9312 ft | 237 kts | 178° |
| 2026-05-09 06:56 | 36.45999 | -83.97681 | 9242 ft | 236 kts | 178° |
| 2026-05-09 06:56 | 36.44373 | -83.97438 | 9197 ft | 235 kts | 178° |
| 2026-05-09 06:56 | 36.42776 | -83.97200 | 9144 ft | 234 kts | 178° |
| 2026-05-09 06:57 | 36.41160 | -83.96959 | 9095 ft | 234 kts | 178° |
| 2026-05-09 06:57 | 36.39547 | -83.96720 | 9031 ft | 233 kts | 178° |
| 2026-05-09 06:57 | 36.37937 | -83.96482 | 8980 ft | 232 kts | 177° |
| 2026-05-09 06:57 | 36.36335 | -83.96243 | 8930 ft | 232 kts | 178° |
| 2026-05-09 06:58 | 36.34727 | -83.96007 | 8876 ft | 233 kts | 178° |
| 2026-05-09 06:58 | 36.33119 | -83.95772 | 8828 ft | 233 kts | 178° |
| 2026-05-09 06:58 | 36.31510 | -83.95535 | 8783 ft | 233 kts | 178° |
| 2026-05-09 06:58 | 36.29904 | -83.95295 | 8705 ft | 231 kts | 177° |
| 2026-05-09 06:59 | 36.28333 | -83.95060 | 8638 ft | 224 kts | 178° |
| 2026-05-09 06:59 | 36.26788 | -83.94832 | 8606 ft | 222 kts | 178° |
| 2026-05-09 06:59 | 36.25268 | -83.94607 | 8533 ft | 218 kts | 178° |
| 2026-05-09 06:59 | 36.23774 | -83.94386 | 8469 ft | 215 kts | 178° |
| 2026-05-09 07:00 | 36.22281 | -83.94168 | 8437 ft | 217 kts | 178° |
| 2026-05-09 07:00 | 36.20783 | -83.93947 | 8386 ft | 217 kts | 177° |
| 2026-05-09 07:00 | 36.19285 | -83.93727 | 8329 ft | 216 kts | 177° |
| 2026-05-09 07:00 | 36.17790 | -83.93507 | 8283 ft | 216 kts | 177° |
| 2026-05-09 07:01 | 36.16300 | -83.93287 | 8227 ft | 216 kts | 177° |
| 2026-05-09 07:01 | 36.14808 | -83.93067 | 8195 ft | 216 kts | 177° |
| 2026-05-09 07:01 | 36.13327 | -83.92849 | 8124 ft | 214 kts | 177° |
| 2026-05-09 07:01 | 36.11848 | -83.92632 | 8097 ft | 215 kts | 177° |
| 2026-05-09 07:02 | 36.10367 | -83.92415 | 8037 ft | 214 kts | 177° |
| 2026-05-09 07:02 | 36.08885 | -83.92197 | 7936 ft | 214 kts | 177° |
| 2026-05-09 07:02 | 36.07408 | -83.91979 | 7838 ft | 214 kts | 177° |
| 2026-05-09 07:02 | 36.05933 | -83.91763 | 7739 ft | 213 kts | 177° |
| 2026-05-09 07:03 | 36.04460 | -83.91547 | 7644 ft | 213 kts | 177° |
| 2026-05-09 07:03 | 36.02990 | -83.91331 | 7532 ft | 212 kts | 176° |
| 2026-05-09 07:03 | 36.01528 | -83.91121 | 7488 ft | 208 kts | 178° |
| 2026-05-09 07:03 | 36.00074 | -83.90861 | 7366 ft | 218 kts | 175° |
| 2026-05-09 07:04 | 35.98529 | -83.90641 | 6987 ft | 229 kts | 176° |
| 2026-05-09 07:04 | 35.96919 | -83.90400 | 6720 ft | 232 kts | 175° |
| 2026-05-09 07:04 | 35.95316 | -83.90154 | 6603 ft | 233 kts | 175° |
| 2026-05-09 07:04 | 35.93727 | -83.89929 | 6588 ft | 233 kts | 176° |
| 2026-05-09 07:05 | 35.92130 | -83.89684 | 6581 ft | 230 kts | 174° |
| 2026-05-09 07:05 | 35.90548 | -83.89621 | 6594 ft | 228 kts | 179° |
| 2026-05-09 07:05 | 35.89032 | -83.88989 | 6594 ft | 241 kts | 143° |
| 2026-05-09 07:05 | 35.88099 | -83.87235 | 6586 ft | 256 kts | 106° |
| 2026-05-09 07:06 | 35.88126 | -83.85068 | 6591 ft | 250 kts | 81° |
| 2026-05-09 07:06 | 35.88446 | -83.83031 | 6577 ft | 235 kts | 85° |
| 2026-05-09 07:06 | 35.88588 | -83.81100 | 6568 ft | 218 kts | 91° |
| 2026-05-09 07:06 | 35.88600 | -83.79286 | 6556 ft | 212 kts | 95° |
| 2026-05-09 07:07 | 35.88533 | -83.77461 | 6580 ft | 212 kts | 97° |
| 2026-05-09 07:07 | 35.88412 | -83.75657 | 6583 ft | 210 kts | 99° |
| 2026-05-09 07:07 | 35.88255 | -83.73879 | 6610 ft | 208 kts | 101° |
| 2026-05-09 07:07 | 35.88073 | -83.72122 | 6573 ft | 205 kts | 102° |
| 2026-05-09 07:08 | 35.87879 | -83.70381 | 6584 ft | 206 kts | 102° |
| 2026-05-09 07:08 | 35.87666 | -83.68625 | 6586 ft | 208 kts | 103° |
| 2026-05-09 07:08 | 35.87440 | -83.66856 | 6599 ft | 209 kts | 103° |
| 2026-05-09 07:08 | 35.87209 | -83.65091 | 6592 ft | 208 kts | 103° |
| 2026-05-09 07:09 | 35.86975 | -83.63340 | 6635 ft | 204 kts | 104° |
| 2026-05-09 07:09 | 35.86747 | -83.61653 | 6587 ft | 197 kts | 104° |
| 2026-05-09 07:09 | 35.86522 | -83.60010 | 6578 ft | 193 kts | 103° |
| 2026-05-09 07:09 | 35.86301 | -83.58378 | 6586 ft | 193 kts | 103° |
| 2026-05-09 07:10 | 35.86079 | -83.56740 | 6580 ft | 194 kts | 104° |
| 2026-05-09 07:10 | 35.85856 | -83.55092 | 6595 ft | 196 kts | 104° |
| 2026-05-09 07:10 | 35.85629 | -83.53431 | 6606 ft | 197 kts | 103° |
| 2026-05-09 07:10 | 35.85403 | -83.51761 | 6569 ft | 196 kts | 102° |
| 2026-05-09 07:11 | 35.85182 | -83.50121 | 6586 ft | 194 kts | 103° |
| 2026-05-09 07:11 | 35.84961 | -83.48488 | 6593 ft | 192 kts | 103° |
| 2026-05-09 07:11 | 35.84740 | -83.46855 | 6590 ft | 194 kts | 103° |
| 2026-05-09 07:11 | 35.84517 | -83.45203 | 6593 ft | 197 kts | 103° |
| 2026-05-09 07:12 | 35.84290 | -83.43539 | 6578 ft | 197 kts | 103° |
| 2026-05-09 07:12 | 35.84065 | -83.41879 | 6578 ft | 196 kts | 103° |
| 2026-05-09 07:12 | 35.83840 | -83.40220 | 6575 ft | 196 kts | 103° |
| 2026-05-09 07:12 | 35.83613 | -83.38560 | 6571 ft | 196 kts | 103° |
| 2026-05-09 07:13 | 35.83384 | -83.36903 | 6586 ft | 196 kts | 103° |
| 2026-05-09 07:13 | 35.83156 | -83.35236 | 6583 ft | 198 kts | 103° |
| 2026-05-09 07:13 | 35.82929 | -83.33564 | 6573 ft | 197 kts | 103° |
| 2026-05-09 07:13 | 35.82701 | -83.31905 | 6571 ft | 196 kts | 103° |
| 2026-05-09 07:14 | 35.82471 | -83.30254 | 6582 ft | 196 kts | 103° |
| 2026-05-09 07:14 | 35.82243 | -83.28600 | 6579 ft | 196 kts | 103° |
| 2026-05-09 07:14 | 35.82017 | -83.26946 | 6571 ft | 196 kts | 103° |
| 2026-05-09 07:14 | 35.81791 | -83.25303 | 6571 ft | 194 kts | 103° |
| 2026-05-09 07:15 | 35.81639 | -83.24198 | 6562 ft | 194 kts | 103° |
| 2026-05-09 07:15 | 35.81413 | -83.22563 | 6560 ft | 194 kts | 103° |
| 2026-05-09 07:15 | 35.81187 | -83.20924 | 6577 ft | 195 kts | 103° |
| 2026-05-09 07:15 | 35.80958 | -83.19271 | 6578 ft | 197 kts | 103° |
| 2026-05-09 07:16 | 35.80730 | -83.17625 | 6559 ft | 197 kts | 103° |
| 2026-05-09 07:16 | 35.80502 | -83.15973 | 6557 ft | 195 kts | 104° |
| 2026-05-09 07:16 | 35.80274 | -83.14328 | 6556 ft | 194 kts | 102° |
| 2026-05-09 07:16 | 35.80047 | -83.12687 | 6568 ft | 196 kts | 103° |
| 2026-05-09 07:17 | 35.79817 | -83.11024 | 6609 ft | 199 kts | 103° |
| 2026-05-09 07:17 | 35.79579 | -83.09328 | 6566 ft | 201 kts | 103° |
| 2026-05-09 07:17 | 35.79343 | -83.07636 | 6563 ft | 200 kts | 103° |
| 2026-05-09 07:17 | 35.79111 | -83.05961 | 6552 ft | 197 kts | 103° |
| 2026-05-09 07:18 | 35.78812 | -83.04336 | 6541 ft | 193 kts | 111° |
| 2026-05-09 07:18 | 35.78375 | -83.02808 | 6591 ft | 191 kts | 114° |
| 2026-05-09 07:18 | 35.77903 | -83.01236 | 6583 ft | 198 kts | 114° |
| 2026-05-09 07:18 | 35.77446 | -82.99701 | 6543 ft | 197 kts | 114° |
| 2026-05-09 07:19 | 35.76975 | -82.98130 | 6574 ft | 197 kts | 115° |
| 2026-05-09 07:19 | 35.76501 | -82.96536 | 6572 ft | 199 kts | 113° |
| 2026-05-09 07:19 | 35.76028 | -82.94923 | 6559 ft | 200 kts | 113° |
| 2026-05-09 07:19 | 35.75561 | -82.93336 | 6549 ft | 195 kts | 113° |
| 2026-05-09 07:20 | 35.75108 | -82.91784 | 6550 ft | 192 kts | 113° |
| 2026-05-09 07:20 | 35.74661 | -82.90246 | 6546 ft | 189 kts | 114° |
| 2026-05-09 07:20 | 35.74205 | -82.88694 | 6552 ft | 196 kts | 114° |
| 2026-05-09 07:20 | 35.73742 | -82.87124 | 6577 ft | 194 kts | 112° |
| 2026-05-09 07:21 | 35.73282 | -82.85549 | 6570 ft | 196 kts | 112° |
| 2026-05-09 07:21 | 35.72827 | -82.83983 | 6573 ft | 193 kts | 112° |
| 2026-05-09 07:21 | 35.72367 | -82.82415 | 6576 ft | 196 kts | 113° |
| 2026-05-09 07:21 | 35.71899 | -82.80824 | 6562 ft | 198 kts | 113° |
| 2026-05-09 07:22 | 35.71437 | -82.79233 | 6555 ft | 197 kts | 114° |
| 2026-05-09 07:22 | 35.70976 | -82.77657 | 6557 ft | 196 kts | 115° |
| 2026-05-09 07:22 | 35.70515 | -82.76087 | 6573 ft | 195 kts | 115° |
| 2026-05-09 07:22 | 35.70054 | -82.74510 | 6581 ft | 196 kts | 114° |
| 2026-05-09 07:23 | 35.69590 | -82.72925 | 6589 ft | 198 kts | 113° |
| 2026-05-09 07:23 | 35.69125 | -82.71331 | 6574 ft | 198 kts | 114° |
| 2026-05-09 07:23 | 35.68665 | -82.69764 | 6592 ft | 191 kts | 114° |
| 2026-05-09 07:23 | 35.68209 | -82.68211 | 6601 ft | 195 kts | 114° |
| 2026-05-09 07:24 | 35.67741 | -82.66649 | 6486 ft | 193 kts | 118° |
| 2026-05-09 07:24 | 35.66948 | -82.65395 | 6304 ft | 182 kts | 143° |
| 2026-05-09 07:24 | 35.65967 | -82.64426 | 6172 ft | 181 kts | 159° |
| 2026-05-09 07:24 | 35.64806 | -82.63828 | 5982 ft | 181 kts | 161° |
| 2026-05-09 07:25 | 35.63628 | -82.63259 | 5723 ft | 181 kts | 162° |
| 2026-05-09 07:25 | 35.62471 | -82.62721 | 5470 ft | 175 kts | 163° |
| 2026-05-09 07:25 | 35.61328 | -82.62202 | 5219 ft | 175 kts | 161° |
| 2026-05-09 07:25 | 35.60200 | -82.61689 | 5085 ft | 170 kts | 163° |
| 2026-05-09 07:26 | 35.59089 | -82.61188 | 5029 ft | 172 kts | 162° |
| 2026-05-09 07:26 | 35.57950 | -82.60672 | 4991 ft | 176 kts | 163° |
| 2026-05-09 07:26 | 35.56801 | -82.60153 | 4739 ft | 175 kts | 162° |
| 2026-05-09 07:26 | 35.55651 | -82.59633 | 4495 ft | 175 kts | 163° |
| 2026-05-09 07:27 | 35.54505 | -82.59116 | 4235 ft | 177 kts | 163° |
| 2026-05-09 07:27 | 35.53357 | -82.58598 | 4043 ft | 183 kts | 161° |
| 2026-05-09 07:27 | 35.52137 | -82.58046 | 3815 ft | 188 kts | 162° |
| 2026-05-09 07:27 | 35.50899 | -82.57487 | 3533 ft | 191 kts | 164° |
| 2026-05-09 07:28 | 35.49665 | -82.56931 | 3310 ft | 191 kts | 161° |
| 2026-05-09 07:28 | 35.48396 | -82.56360 | 3035 ft | 197 kts | 160° |
| 2026-05-09 07:28 | 35.47114 | -82.55780 | 2763 ft | 195 kts | 159° |
| 2026-05-09 07:28 | 35.45851 | -82.55211 | 2468 ft | 193 kts | 158° |
| 2026-05-09 07:29 | 35.44610 | -82.54653 | 2201 ft | 187 kts | 158° |
| 2026-05-09 07:29 | 35.43737 | -82.54257 | 2151 ft | 55 kts | 160° |
| 2026-05-09 07:29 | 35.43579 | -82.54115 | 2150 ft | 0 kts | 115° |
| 2026-05-09 07:29 | 35.43576 | -82.54108 | 2150 ft | 8 kts | 116° |
| 2026-05-09 07:30 | 35.43549 | -82.54042 | 2152 ft | 15 kts | 112° |
| 2026-05-09 07:30 | 35.43542 | -82.53959 | 2155 ft | 6 kts | 78° |
| 2026-05-09 07:30 | 35.43559 | -82.53935 | 2149 ft | 9 kts | 43° |
| 2026-05-09 07:30 | 35.43565 | -82.53925 | 2149 ft | 5 kts | 54° |
| 2026-05-09 07:31 | 35.43568 | -82.53920 | 2149 ft | 0 kts | 59° |